createdAt,value
2018-02-17T00:00:38.872Z,15.40
2018-02-17T00:03:05.511Z,14.53
2018-02-17T00:05:32.078Z,15.53
2018-02-17T00:07:58.781Z,14.30
2018-02-17T00:10:25.410Z,15.53
2018-02-17T00:12:52.016Z,14.30
2018-02-17T00:15:18.735Z,13.83
2018-02-17T00:17:45.411Z,15.53
2018-02-17T00:20:12.806Z,13.87
2018-02-17T00:22:39.384Z,15.13
2018-02-17T00:25:06.038Z,14.47
2018-02-17T00:27:32.785Z,14.10
2018-02-17T00:30:04.089Z,14.50
2018-02-17T00:32:31.271Z,14.63
2018-02-17T00:34:57.848Z,15.30
2018-02-17T00:37:24.537Z,13.77
2018-02-17T00:39:51.124Z,16.03
2018-02-17T00:42:17.683Z,15.03
2018-02-17T00:44:45.001Z,16.03
2018-02-17T00:47:11.718Z,12.97
2018-02-17T00:49:38.243Z,15.00
2018-02-17T00:52:05.205Z,15.13
2018-02-17T00:54:32.538Z,14.00
2018-02-17T00:56:58.955Z,15.67
2018-02-17T00:59:25.371Z,14.90
2018-02-17T01:01:52.570Z,14.57
2018-02-17T01:04:18.967Z,13.80
2018-02-17T01:06:45.414Z,15.03
2018-02-17T01:09:11.865Z,14.27
2018-02-17T01:11:38.278Z,16.27
2018-02-17T01:14:04.658Z,15.47
2018-02-17T01:16:31.128Z,15.40
2018-02-17T01:18:58.273Z,14.20
2018-02-17T01:21:25.406Z,14.73
2018-02-17T01:23:51.855Z,13.90
2018-02-17T01:26:18.263Z,14.10
2018-02-17T01:28:45.428Z,14.73
2018-02-17T01:31:11.867Z,14.17
2018-02-17T01:33:38.264Z,14.47
2018-02-17T01:36:04.696Z,13.23
2018-02-17T01:38:31.105Z,12.50
2018-02-17T01:40:57.534Z,13.27
2018-02-17T01:43:24.033Z,14.27
2018-02-17T01:45:50.468Z,12.30
2018-02-17T01:48:16.827Z,13.60
2018-02-17T01:50:43.235Z,13.60
2018-02-17T01:53:10.483Z,13.20
2018-02-17T01:55:36.914Z,12.20
2018-02-17T01:58:04.078Z,13.57
2018-02-17T02:00:30.542Z,13.30
2018-02-17T02:02:56.946Z,12.37
2018-02-17T02:05:24.136Z,13.00
2018-02-17T02:07:50.543Z,12.07
2018-02-17T02:10:16.939Z,12.90
2018-02-17T02:12:43.369Z,13.37
2018-02-17T02:15:09.779Z,14.00
2018-02-17T02:17:36.169Z,12.90
2018-02-17T02:20:03.621Z,12.90
2018-02-17T02:22:30.798Z,12.67
2018-02-17T02:24:57.188Z,12.57
2018-02-17T02:27:23.577Z,12.50
2018-02-17T02:29:49.974Z,12.47
2018-02-17T02:32:16.400Z,12.57
2018-02-17T02:34:43.544Z,14.13
2018-02-17T02:37:10.782Z,14.27
2018-02-17T02:39:37.219Z,12.20
2018-02-17T02:42:03.609Z,12.87
2018-02-17T02:44:30.042Z,14.50
2018-02-17T02:46:56.425Z,13.10
2018-02-17T02:49:23.569Z,12.90
2018-02-17T02:51:49.963Z,12.60
2018-02-17T02:54:16.403Z,13.07
2018-02-17T02:56:42.791Z,13.00
2018-02-17T02:59:09.961Z,13.63
2018-02-17T03:01:36.448Z,12.60
2018-02-17T03:04:02.848Z,12.50
2018-02-17T03:06:29.269Z,12.70
2018-02-17T03:08:55.697Z,13.63
2018-02-17T03:11:22.074Z,11.20
2018-02-17T03:13:48.510Z,12.20
2018-02-17T03:16:14.910Z,13.37
2018-02-17T03:18:41.326Z,13.17
2018-02-17T03:21:07.749Z,12.60
2018-02-17T03:23:34.240Z,13.73
2018-02-17T03:26:01.498Z,11.47
2018-02-17T03:28:27.917Z,12.47
2018-02-17T03:30:54.336Z,10.50
2018-02-17T03:33:20.793Z,12.73
2018-02-17T03:35:47.209Z,11.83
2018-02-17T03:38:15.078Z,11.50
2018-02-17T03:40:41.485Z,10.30
2018-02-17T03:43:07.960Z,11.53
2018-02-17T03:45:34.378Z,12.23
2018-02-17T03:48:00.828Z,11.10
2018-02-17T03:50:27.242Z,12.10
2018-02-17T03:52:53.623Z,12.10
2018-02-17T03:55:20.026Z,11.20
2018-02-17T03:57:46.443Z,12.43
2018-02-17T04:00:19.850Z,10.23
2018-02-17T04:02:46.261Z,12.30
2018-02-17T04:05:12.715Z,11.97
2018-02-17T04:07:39.146Z,11.83
2018-02-17T04:10:05.539Z,12.40
2018-02-17T04:12:31.965Z,11.60
2018-02-17T04:14:58.387Z,11.30
2018-02-17T04:17:24.774Z,12.43
2018-02-17T04:19:51.199Z,11.27
2018-02-17T04:22:17.743Z,12.47
2018-02-17T04:24:44.122Z,13.40
2018-02-17T04:27:10.610Z,13.00
2018-02-17T04:29:36.995Z,11.83
2018-02-17T04:32:03.402Z,12.63
2018-02-17T04:34:29.855Z,13.20
2018-02-17T04:36:56.267Z,10.77
2018-02-17T04:39:23.426Z,12.77
2018-02-17T04:41:50.859Z,12.37
2018-02-17T04:44:32.966Z,12.37
2018-02-17T04:50:06.242Z,12.77
2018-02-17T04:52:35.038Z,13.47
2018-02-17T04:55:07.566Z,13.53
2018-02-17T04:57:34.871Z,12.03
2018-02-17T05:00:03.243Z,12.57
2018-02-17T05:02:30.456Z,11.50
2018-02-17T05:04:59.802Z,12.37
2018-02-17T05:07:29.083Z,12.70
2018-02-17T05:09:55.536Z,11.10
2018-02-17T05:12:21.933Z,13.13
2018-02-17T05:14:48.430Z,11.40
2018-02-17T05:17:17.533Z,12.10
2018-02-17T05:23:04.327Z,12.27
2018-02-17T05:25:45.693Z,11.77
2018-02-17T05:28:12.154Z,11.43
2018-02-17T05:30:43.259Z,12.07
2018-02-17T05:33:16.780Z,12.90
2018-02-17T05:35:54.846Z,12.50
2018-02-17T05:38:21.285Z,12.47
2018-02-17T05:40:50.605Z,11.60
2018-02-17T05:43:17.099Z,12.10
2018-02-17T05:45:49.563Z,11.90
2018-02-17T05:48:15.955Z,13.27
2018-02-17T05:50:42.365Z,12.57
2018-02-17T05:53:08.823Z,12.70
2018-02-17T05:55:35.198Z,13.00
2018-02-17T05:58:01.586Z,13.30
2018-02-17T06:00:28.024Z,13.50
2018-02-17T06:02:54.413Z,13.80
2018-02-17T06:05:20.845Z,13.27
2018-02-17T06:07:47.317Z,14.20
2018-02-17T06:10:13.727Z,15.33
2018-02-17T06:12:40.119Z,13.97
2018-02-17T06:15:06.566Z,13.60
2018-02-17T06:17:32.945Z,14.57
2018-02-17T06:19:59.321Z,14.47
2018-02-17T06:22:25.812Z,14.07
2018-02-17T06:24:52.175Z,14.10
2018-02-17T06:27:18.550Z,14.10
2018-02-17T06:29:44.949Z,13.53
2018-02-17T06:32:11.330Z,14.00
2018-02-17T06:34:37.736Z,15.43
2018-02-17T06:37:04.410Z,13.33
2018-02-17T06:39:30.945Z,13.93
2018-02-17T06:41:57.326Z,14.37
2018-02-17T06:44:23.743Z,13.77
2018-02-17T06:46:50.126Z,13.33
2018-02-17T06:49:16.571Z,14.70
2018-02-17T06:51:42.989Z,13.80
2018-02-17T06:54:09.402Z,14.40
2018-02-17T06:56:35.798Z,13.83
2018-02-17T06:59:02.960Z,14.50
2018-02-17T07:01:29.357Z,13.17
2018-02-17T07:03:55.746Z,15.27
2018-02-17T07:06:22.181Z,14.80
2018-02-17T07:08:48.565Z,14.37
2018-02-17T07:11:15.707Z,14.30
2018-02-17T07:13:42.134Z,14.10
2018-02-17T07:16:08.506Z,12.57
2018-02-17T07:18:34.902Z,13.70
2018-02-17T07:21:02.083Z,13.67
2018-02-17T07:23:28.487Z,14.50
2018-02-17T07:25:54.859Z,13.87
2018-02-17T07:28:21.296Z,12.30
2018-02-17T07:30:47.775Z,13.37
2018-02-17T07:33:14.182Z,14.20
2018-02-17T07:35:40.605Z,12.57
2018-02-17T07:38:06.990Z,12.70
2018-02-17T07:40:34.226Z,13.00
2018-02-17T07:43:00.649Z,13.63
2018-02-17T07:45:27.055Z,11.60
2018-02-17T07:47:53.438Z,13.27
2018-02-17T07:50:20.604Z,12.77
2018-02-17T07:52:47.014Z,13.10
2018-02-17T07:55:13.382Z,12.40
2018-02-17T07:57:39.799Z,13.67
2018-02-17T08:00:06.202Z,13.40
2018-02-17T08:02:32.580Z,14.10
2018-02-17T08:04:59.038Z,14.00
2018-02-17T08:07:25.443Z,12.50
2018-02-17T08:09:51.847Z,12.90
2018-02-17T08:12:19.018Z,13.07
2018-02-17T08:14:45.446Z,14.10
2018-02-17T08:17:11.889Z,13.20
2018-02-17T08:19:39.054Z,12.43
2018-02-17T08:22:05.477Z,12.83
2018-02-17T08:24:31.861Z,11.87
2018-02-17T08:26:58.294Z,12.63
2018-02-17T08:29:24.695Z,12.70
2018-02-17T08:31:51.090Z,13.10
2018-02-17T08:34:17.506Z,12.80
2018-02-17T08:36:43.906Z,13.43
2018-02-17T08:39:10.356Z,11.60
2018-02-17T08:41:38.266Z,13.13
2018-02-17T08:44:04.668Z,12.33
2018-02-17T08:46:31.147Z,12.40
2018-02-17T08:48:57.550Z,13.87
2018-02-17T08:51:24.063Z,13.57
2018-02-17T08:53:50.452Z,12.73
2018-02-17T08:56:16.898Z,11.60
2018-02-17T08:58:43.311Z,12.20
2018-02-17T09:01:09.793Z,13.93
2018-02-17T09:03:36.211Z,12.20
2018-02-17T09:06:02.629Z,13.87
2018-02-17T09:08:29.038Z,12.50
2018-02-17T09:10:55.486Z,12.27
2018-02-17T09:13:21.889Z,13.27
2018-02-17T09:15:48.312Z,12.67
2018-02-17T09:18:14.797Z,13.20
2018-02-17T09:20:41.194Z,12.17
2018-02-17T09:23:07.638Z,12.17
2018-02-17T09:25:34.055Z,12.80
2018-02-17T09:28:00.474Z,11.17
2018-02-17T09:30:26.915Z,11.67
2018-02-17T09:32:54.111Z,11.07
2018-02-17T09:35:20.517Z,11.73
2018-02-17T09:37:47.631Z,12.13
2018-02-17T09:40:14.057Z,11.57
2018-02-17T09:42:40.424Z,12.67
2018-02-17T09:45:06.807Z,10.23
2018-02-17T09:47:33.218Z,11.93
2018-02-17T09:49:59.651Z,12.50
2018-02-17T09:52:26.934Z,12.83
2018-02-17T09:54:53.726Z,11.57
2018-02-17T09:57:20.174Z,11.97
2018-02-17T09:59:46.641Z,11.90
2018-02-17T10:02:13.075Z,13.10
2018-02-17T10:04:41.001Z,12.77
2018-02-17T10:07:07.408Z,11.50
2018-02-17T10:09:34.572Z,12.27
2018-02-17T10:12:01.017Z,13.10
2018-02-17T10:14:27.387Z,11.00
2018-02-17T10:16:53.870Z,12.27
2018-02-17T10:19:20.313Z,11.90
2018-02-17T10:21:46.764Z,13.07
2018-02-17T10:24:13.198Z,11.17
2018-02-17T10:26:40.405Z,12.70
2018-02-17T10:29:07.534Z,11.37
2018-02-17T10:31:33.966Z,11.53
2018-02-17T10:34:00.372Z,11.43
2018-02-17T10:36:26.762Z,10.87
2018-02-17T10:38:53.362Z,11.30
2018-02-17T10:41:19.774Z,11.23
2018-02-17T10:43:46.347Z,10.77
2018-02-17T10:46:13.503Z,11.20
2018-02-17T10:48:40.619Z,10.03
2018-02-17T10:51:07.051Z,10.67
2018-02-17T10:53:34.312Z,10.33
2018-02-17T10:56:00.744Z,10.73
2018-02-17T10:58:27.136Z,11.30
2018-02-17T11:00:53.920Z,9.90
2018-02-17T11:03:20.352Z,11.20
2018-02-17T11:05:46.732Z,11.17
2018-02-17T11:08:13.166Z,10.77
2018-02-17T11:10:39.569Z,11.70
2018-02-17T11:13:06.703Z,11.80
2018-02-17T11:15:33.147Z,12.13
2018-02-17T11:18:00.303Z,9.47
2018-02-17T11:20:27.477Z,10.13
2018-02-17T11:22:53.923Z,11.77
2018-02-17T11:25:20.351Z,10.57
2018-02-17T11:27:46.718Z,11.43
2018-02-17T11:30:13.148Z,11.20
2018-02-17T11:32:39.520Z,11.80
2018-02-17T11:35:06.667Z,12.17
2018-02-17T11:37:33.845Z,10.90
2018-02-17T11:40:00.241Z,11.47
2018-02-17T11:42:27.398Z,11.47
2018-02-17T11:44:54.741Z,11.00
2018-02-17T11:47:21.883Z,11.33
2018-02-17T11:49:48.299Z,11.83
2018-02-17T11:52:14.855Z,10.13
2018-02-17T11:54:41.258Z,11.13
2018-02-17T11:57:07.720Z,11.00
2018-02-17T11:59:34.150Z,11.27
2018-02-17T12:02:01.399Z,10.67
2018-02-17T12:04:27.812Z,11.67
2018-02-17T12:06:54.252Z,12.23
2018-02-17T12:09:20.702Z,11.70
2018-02-17T12:11:47.859Z,11.33
2018-02-17T12:14:14.250Z,12.37
2018-02-17T12:16:40.649Z,11.40
2018-02-17T12:19:07.058Z,11.90
2018-02-17T12:21:34.232Z,11.00
2018-02-17T12:24:00.650Z,11.20
2018-02-17T12:26:27.829Z,11.87
2018-02-17T12:28:54.302Z,12.10
2018-02-17T12:31:20.702Z,10.13
2018-02-17T12:33:47.079Z,13.33
2018-02-17T12:36:13.504Z,11.50
2018-02-17T12:38:39.906Z,10.67
2018-02-17T12:41:06.296Z,10.93
2018-02-17T12:43:33.541Z,13.17
2018-02-17T12:45:59.950Z,12.13
2018-02-17T12:48:27.213Z,11.00
2018-02-17T12:50:54.413Z,12.03
2018-02-17T12:53:21.533Z,12.77
2018-02-17T12:55:47.936Z,11.67
2018-02-17T12:58:14.375Z,12.40
2018-02-17T13:00:41.555Z,11.73
2018-02-17T13:03:08.005Z,11.13
2018-02-17T13:05:34.424Z,12.03
2018-02-17T13:08:00.847Z,11.77
2018-02-17T13:10:27.997Z,11.80
2018-02-17T13:12:55.167Z,10.83
2018-02-17T13:15:21.550Z,11.17
2018-02-17T13:17:47.942Z,12.50
2018-02-17T13:20:14.341Z,11.93
2018-02-17T13:22:41.483Z,11.13
2018-02-17T13:25:07.897Z,11.90
2018-02-17T13:27:34.381Z,11.87
2018-02-17T13:30:00.795Z,10.30
2018-02-17T13:32:27.925Z,12.07
2018-02-17T13:34:54.557Z,11.63
2018-02-17T13:37:20.947Z,11.33
2018-02-17T13:39:47.320Z,11.50
2018-02-17T13:42:13.736Z,12.37
2018-02-17T13:44:40.134Z,11.60
2018-02-17T13:47:06.528Z,12.53
2018-02-17T13:49:33.699Z,10.60
2018-02-17T13:52:00.927Z,10.93
2018-02-17T13:54:27.369Z,11.43
2018-02-17T13:56:53.890Z,10.27
2018-02-17T13:59:20.266Z,10.57
2018-02-17T14:01:46.709Z,10.83
2018-02-17T14:04:13.126Z,11.20
2018-02-17T14:06:39.538Z,11.80
2018-02-17T14:09:05.890Z,11.60
2018-02-17T14:11:32.388Z,11.83
2018-02-17T14:13:58.791Z,12.10
2018-02-17T14:16:25.233Z,11.50
2018-02-17T14:18:51.673Z,12.40
2018-02-17T14:21:18.871Z,11.93
2018-02-17T14:23:45.281Z,12.13
2018-02-17T14:26:12.447Z,11.53
2018-02-17T14:28:39.601Z,12.80
2018-02-17T14:31:05.990Z,12.50
2018-02-17T14:33:32.460Z,12.20
2018-02-17T14:35:58.845Z,12.27
2018-02-17T14:38:25.238Z,12.87
2018-02-17T14:40:52.030Z,11.73
2018-02-17T14:43:18.576Z,13.33
2018-02-17T14:45:44.960Z,13.27
2018-02-17T14:48:11.370Z,13.77
2018-02-17T14:50:37.763Z,11.83
2018-02-17T14:53:04.163Z,12.97
2018-02-17T14:55:30.620Z,16.60
2018-02-17T14:57:57.059Z,12.60
2018-02-17T15:00:23.500Z,13.13
2018-02-17T15:02:50.043Z,11.73
2018-02-17T15:05:16.580Z,11.73
2018-02-17T15:07:43.026Z,13.60
2018-02-17T15:10:09.411Z,12.20
2018-02-17T15:12:35.824Z,13.30
2018-02-17T15:15:02.213Z,12.20
2018-02-17T15:17:28.619Z,12.03
2018-02-17T15:19:55.054Z,12.20
2018-02-17T15:22:21.476Z,11.77
2018-02-17T15:24:47.924Z,12.60
2018-02-17T15:27:14.370Z,12.90
2018-02-17T15:29:40.794Z,13.20
2018-02-17T15:32:07.218Z,13.00
2018-02-17T15:34:33.591Z,13.07
2018-02-17T15:37:00.046Z,13.17
2018-02-17T15:39:26.487Z,12.27
2018-02-17T15:41:52.891Z,12.83
2018-02-17T15:44:19.302Z,13.87
2018-02-17T15:46:45.827Z,12.03
2018-02-17T15:49:12.236Z,12.37
2018-02-17T15:51:38.639Z,12.93
2018-02-17T15:54:05.070Z,12.87
2018-02-17T15:56:31.463Z,11.80
2018-02-17T15:58:57.856Z,12.90
2018-02-17T16:01:24.283Z,11.50
2018-02-17T16:03:50.679Z,12.87
2018-02-17T16:06:17.825Z,12.93
2018-02-17T16:08:44.987Z,13.83
2018-02-17T16:11:12.130Z,12.20
2018-02-17T16:13:39.292Z,12.50
2018-02-17T16:16:05.708Z,10.83
2018-02-17T16:18:32.845Z,11.40
2018-02-17T16:20:59.259Z,13.73
2018-02-17T16:23:25.816Z,13.27
2018-02-17T16:25:52.209Z,12.03
2018-02-17T16:28:18.622Z,11.20
2018-02-17T16:30:45.112Z,12.33
2018-02-17T16:33:11.531Z,12.00
2018-02-17T16:35:37.919Z,11.83
2018-02-17T16:38:04.340Z,11.90
2018-02-17T16:40:30.767Z,12.37
2018-02-17T16:42:57.899Z,11.57
2018-02-17T16:45:24.302Z,11.67
2018-02-17T16:47:50.702Z,11.97
2018-02-17T16:50:17.100Z,12.30
2018-02-17T16:52:43.553Z,11.47
2018-02-17T16:55:10.703Z,11.10
2018-02-17T16:57:37.095Z,12.00
2018-02-17T17:00:03.637Z,11.40
2018-02-17T17:02:30.026Z,11.43
2018-02-17T17:05:03.330Z,11.83
2018-02-17T17:07:29.820Z,10.93
2018-02-17T17:09:57.356Z,10.10
2018-02-17T17:12:24.523Z,12.60
2018-02-17T17:14:51.700Z,12.20
2018-02-17T17:17:18.107Z,12.83
2018-02-17T17:19:45.248Z,13.37
2018-02-17T17:22:11.671Z,12.20
2018-02-17T17:24:38.103Z,12.17
2018-02-17T17:27:04.518Z,11.73
2018-02-17T17:29:31.031Z,11.80
2018-02-17T17:31:57.458Z,13.20
2018-02-17T17:34:23.921Z,11.70
2018-02-17T17:36:50.374Z,12.87
2018-02-17T17:39:16.788Z,13.07
2018-02-17T17:41:43.193Z,12.83
2018-02-17T17:44:09.699Z,12.37
2018-02-17T17:46:36.867Z,12.10
2018-02-17T17:49:03.299Z,14.53
2018-02-17T17:51:29.711Z,14.60
2018-02-17T17:53:56.849Z,15.83
2018-02-17T17:56:24.027Z,15.10
2018-02-17T17:58:50.489Z,13.30
2018-02-17T18:01:16.896Z,15.07
2018-02-17T18:03:43.310Z,14.60
2018-02-17T18:06:10.510Z,14.20
2018-02-17T18:08:36.914Z,14.30
2018-02-17T18:11:03.345Z,14.67
2018-02-17T18:13:29.784Z,14.40
2018-02-17T18:15:56.208Z,13.70
2018-02-17T18:18:22.631Z,15.33
2018-02-17T18:20:49.030Z,14.60
2018-02-17T18:23:15.430Z,13.43
2018-02-17T18:25:41.862Z,14.97
2018-02-17T18:28:08.309Z,15.70
2018-02-17T18:30:34.741Z,14.73
2018-02-17T18:33:01.156Z,15.00
2018-02-17T18:35:27.649Z,12.43
2018-02-17T18:37:54.885Z,14.10
2018-02-17T18:40:21.267Z,15.13
2018-02-17T18:42:47.707Z,15.13
2018-02-17T18:45:14.086Z,16.17
2018-02-17T18:47:40.616Z,15.63
2018-02-17T18:50:07.057Z,14.80
2018-02-17T18:52:34.214Z,15.77
2018-02-17T18:55:00.636Z,14.93
2018-02-17T18:57:27.112Z,15.23
2018-02-17T18:59:53.531Z,15.90
2018-02-17T19:02:19.975Z,15.03
2018-02-17T19:04:46.575Z,14.77
2018-02-17T19:07:12.973Z,16.47
2018-02-17T19:09:39.391Z,17.40
2018-02-17T19:12:05.832Z,13.90
2018-02-17T19:14:32.242Z,15.40
2018-02-17T19:16:59.384Z,15.43
2018-02-17T19:19:25.841Z,15.27
2018-02-17T19:21:52.322Z,15.43
2018-02-17T19:24:18.751Z,15.77
2018-02-17T19:26:45.187Z,16.10
2018-02-17T19:29:11.593Z,15.97
2018-02-17T19:31:38.039Z,16.00
2018-02-17T19:34:04.490Z,16.50
2018-02-17T19:36:30.886Z,14.97
2018-02-17T19:38:57.278Z,14.67
2018-02-17T19:41:24.426Z,16.37
2018-02-17T19:43:50.830Z,15.40
2018-02-17T19:46:17.257Z,16.53
2018-02-17T19:48:43.663Z,16.80
2018-02-17T19:51:10.081Z,15.70
2018-02-17T19:53:36.491Z,16.20
2018-02-17T19:56:03.705Z,16.47
2018-02-17T19:58:30.107Z,15.87
2018-02-17T20:00:56.513Z,16.70
2018-02-17T20:03:23.646Z,15.70
2018-02-17T20:05:50.798Z,15.83
2018-02-17T20:08:17.940Z,16.40
2018-02-17T20:10:45.176Z,18.20
2018-02-17T20:13:11.600Z,16.20
2018-02-17T20:15:38.050Z,16.93
2018-02-17T20:18:05.234Z,17.10
2018-02-17T20:20:31.657Z,16.60
2018-02-17T20:22:58.112Z,15.90
2018-02-17T20:25:24.563Z,16.93
2018-02-17T20:27:51.045Z,18.57
2018-02-17T20:30:18.212Z,16.17
2018-02-17T20:32:44.691Z,16.53
2018-02-17T20:35:11.086Z,16.77
2018-02-17T20:37:37.508Z,16.43
2018-02-17T20:40:04.711Z,15.73
2018-02-17T20:42:31.118Z,15.10
2018-02-17T20:44:57.517Z,14.67
2018-02-17T20:47:24.029Z,14.27
2018-02-17T20:49:50.433Z,15.30
2018-02-17T20:52:16.847Z,15.77
2018-02-17T20:54:43.431Z,17.13
2018-02-17T20:57:10.580Z,15.20
2018-02-17T20:59:36.997Z,14.50
2018-02-17T21:02:03.432Z,15.00
2018-02-17T21:04:29.878Z,15.83
2018-02-17T21:06:56.318Z,14.23
2018-02-17T21:09:23.961Z,14.23
2018-02-17T21:11:50.511Z,16.20
2018-02-17T21:14:18.428Z,15.30
2018-02-17T21:16:45.113Z,15.63
2018-02-17T21:19:12.289Z,16.83
2018-02-17T21:21:39.435Z,15.90
2018-02-17T21:24:05.859Z,17.03
2018-02-17T21:26:32.313Z,14.77
2018-02-17T21:28:59.528Z,15.17
2018-02-17T21:31:26.727Z,13.60
2018-02-17T21:33:53.218Z,14.67
2018-02-17T21:36:19.667Z,14.17
2018-02-17T21:38:46.126Z,13.87
2018-02-17T21:41:12.416Z,13.83
2018-02-17T21:43:38.802Z,15.20
2018-02-17T21:46:05.235Z,15.20
2018-02-17T21:48:31.663Z,13.90
2018-02-17T21:50:58.796Z,15.93
2018-02-17T21:53:25.947Z,15.53
2018-02-17T21:55:52.375Z,13.53
2018-02-17T21:58:18.821Z,15.10
2018-02-17T22:00:45.316Z,14.50
2018-02-17T22:03:11.721Z,14.60
2018-02-17T22:05:38.237Z,15.87
2018-02-17T22:08:04.726Z,13.63
2018-02-17T22:10:31.868Z,16.33
2018-02-17T22:12:58.309Z,14.30
2018-02-17T22:15:24.760Z,14.60
2018-02-17T22:17:51.179Z,15.00
2018-02-17T22:20:18.390Z,16.77
2018-02-17T22:22:44.967Z,15.17
2018-02-17T22:25:11.368Z,15.10
2018-02-17T22:27:38.110Z,15.60
2018-02-17T22:30:04.770Z,16.13
2018-02-17T22:32:31.339Z,16.27
2018-02-17T22:34:57.771Z,15.97
2018-02-17T22:37:24.373Z,12.83
2018-02-17T22:39:50.813Z,15.40
2018-02-17T22:42:17.995Z,14.57
2018-02-17T22:44:44.466Z,16.40
2018-02-17T22:47:10.894Z,14.73
2018-02-17T22:49:38.086Z,16.77
2018-02-17T22:52:05.334Z,15.83
2018-02-17T22:54:31.904Z,15.07
2018-02-17T22:56:58.351Z,13.70
2018-02-17T22:59:24.792Z,16.63
2018-02-17T23:01:51.258Z,14.87
2018-02-17T23:04:17.673Z,15.57
2018-02-17T23:06:44.123Z,17.17
2018-02-17T23:09:10.552Z,15.37
2018-02-17T23:11:36.957Z,15.90
2018-02-17T23:14:03.403Z,16.30
2018-02-17T23:16:29.804Z,17.60
2018-02-17T23:18:56.224Z,16.73
2018-02-17T23:21:22.687Z,17.57
2018-02-17T23:23:49.088Z,16.60
2018-02-17T23:26:15.490Z,16.90
2018-02-17T23:28:41.910Z,15.80
2018-02-17T23:31:08.323Z,16.20
2018-02-17T23:33:34.759Z,16.13
2018-02-17T23:36:01.159Z,16.10
2018-02-17T23:38:27.576Z,15.40
2018-02-17T23:40:53.972Z,16.07
2018-02-17T23:43:20.426Z,15.90
2018-02-17T23:45:46.854Z,16.40
2018-02-17T23:48:13.237Z,16.47
2018-02-17T23:50:39.641Z,16.63
2018-02-17T23:53:06.069Z,15.70
2018-02-17T23:55:33.235Z,16.43
2018-02-17T23:57:59.667Z,16.33
